Time;durP1;ratioP1;P1;durP2;ratioP2;P2;SDS_P1;SDS_P2;PMS_P1;PMS_P2;Temp;Humidity;BMP_temperature;BMP_pressure;BME280_temperature;BME280_humidity;BME280_pressure;Samples;Min_cycle;Max_cycle;Signal;HPM_P1;HPM_P2
2023/05/10 00:01:58;;;;;;;9.45;7.53;;;13.50;99.90;;;;;;5078064;28;20872;-55
2023/05/10 00:04:27;;;;;;;9.55;7.38;;;13.50;99.90;;;;;;5081995;28;20465;-59
2023/05/10 00:06:54;;;;;;;10.77;7.90;;;13.40;99.90;;;;;;5075998;28;20423;-58
2023/05/10 00:09:21;;;;;;;10.73;8.00;;;13.40;99.90;;;;;;5082999;28;20447;-59
2023/05/10 00:11:47;;;;;;;10.10;7.70;;;13.40;99.90;;;;;;5081617;28;20904;-56
2023/05/10 00:14:15;;;;;;;9.05;7.28;;;13.40;99.90;;;;;;5083025;28;20463;-54
2023/05/10 00:16:42;;;;;;;9.98;7.72;;;13.50;99.90;;;;;;5078753;28;20428;-59
2023/05/10 00:19:08;;;;;;;11.32;8.30;;;13.50;99.90;;;;;;5085821;28;20811;-59
2023/05/10 00:21:35;;;;;;;9.45;7.88;;;13.50;99.90;;;;;;5081192;28;20441;-55
2023/05/10 00:24:02;;;;;;;9.50;7.40;;;13.50;99.90;;;;;;5083727;28;20463;-57
2023/05/10 00:26:28;;;;;;;12.27;8.15;;;13.50;99.90;;;;;;5082000;28;20814;-55
2023/05/10 00:28:55;;;;;;;12.05;7.75;;;13.40;99.90;;;;;;5083483;28;20863;-56
2023/05/10 00:31:23;;;;;;;9.50;7.65;;;13.50;99.90;;;;;;5075471;28;20924;-58
2023/05/10 00:33:50;;;;;;;10.77;8.00;;;13.50;99.90;;;;;;5079226;28;20419;-57
2023/05/10 00:36:16;;;;;;;10.60;7.53;;;13.50;99.90;;;;;;5074122;28;20830;-57
2023/05/10 00:38:43;;;;;;;12.75;8.77;;;13.40;99.90;;;;;;5082099;28;20411;-54
2023/05/10 00:41:10;;;;;;;13.20;9.52;;;13.50;99.90;;;;;;5080997;28;20850;-60
2023/05/10 00:43:36;;;;;;;14.23;9.73;;;13.50;99.90;;;;;;5083349;28;20548;-57
2023/05/10 00:46:03;;;;;;;15.25;10.13;;;13.40;99.90;;;;;;5082386;28;20813;-55
2023/05/10 00:48:32;;;;;;;13.43;9.82;;;13.40;99.90;;;;;;5079204;28;20495;-57
2023/05/10 00:50:58;;;;;;;23.73;20.45;;;13.40;99.90;;;;;;5081758;28;20445;-58
2023/05/10 00:53:25;;;;;;;15.20;10.50;;;13.40;99.90;;;;;;5078817;28;20423;-55
2023/05/10 00:55:52;;;;;;;15.13;10.27;;;13.50;99.90;;;;;;5082746;28;20464;-56
2023/05/10 00:58:19;;;;;;;15.80;10.40;;;13.50;99.90;;;;;;5084014;28;20422;-53
2023/05/10 01:00:48;;;;;;;15.52;10.73;;;13.50;99.90;;;;;;5080257;28;20412;-55
2023/05/10 01:03:15;;;;;;;18.63;11.15;;;13.50;99.90;;;;;;5079662;28;20421;-56
2023/05/10 01:05:42;;;;;;;18.77;11.82;;;13.50;99.90;;;;;;5080461;28;20775;-56
2023/05/10 01:08:09;;;;;;;17.35;11.93;;;13.50;99.90;;;;;;5080031;28;20467;-55
2023/05/10 01:10:36;;;;;;;15.93;11.40;;;13.50;99.90;;;;;;5082897;28;20414;-56
2023/05/10 01:13:03;;;;;;;17.65;12.27;;;13.50;99.90;;;;;;5077012;28;20888;-56
2023/05/10 01:15:31;;;;;;;18.17;12.93;;;13.40;99.90;;;;;;5078274;28;20413;-55
2023/05/10 01:17:58;;;;;;;17.75;12.48;;;13.40;99.90;;;;;;5072899;28;20500;-54
2023/05/10 01:20:26;;;;;;;20.42;13.50;;;13.30;99.90;;;;;;5081719;28;20410;-56
2023/05/10 01:23:14;;;;;;;20.80;13.73;;;13.40;99.90;;;;;;5078349;28;20419;-55
2023/05/10 01:26:08;;;;;;;26.33;14.90;;;13.20;99.90;;;;;;5080056;28;20826;-56
2023/05/10 01:28:59;;;;;;;18.83;13.20;;;13.20;99.90;;;;;;5080120;28;20813;-56
2023/05/10 01:31:42;;;;;;;18.33;12.23;;;13.10;99.90;;;;;;5078018;28;20411;-54
2023/05/10 01:34:16;;;;;;;18.40;12.07;;;13.20;99.90;;;;;;5078283;28;21148;-60
2023/05/10 01:36:48;;;;;;;18.33;11.57;;;13.10;99.90;;;;;;5074799;28;20435;-57
2023/05/10 01:39:23;;;;;;;15.48;10.93;;;13.10;99.90;;;;;;5082605;28;20801;-57
2023/05/10 01:41:53;;;;;;;17.03;11.00;;;12.90;99.90;;;;;;5081825;28;20406;-59
2023/05/10 01:44:30;;;;;;;15.97;10.53;;;12.90;99.90;;;;;;5076600;28;20445;-59
2023/05/10 01:47:03;;;;;;;19.67;10.53;;;12.90;99.90;;;;;;5075310;28;20473;-56
2023/05/10 01:49:35;;;;;;;18.30;10.77;;;12.70;99.90;;;;;;5080170;28;20403;-55
2023/05/10 01:52:09;;;;;;;15.68;10.50;;;12.80;99.90;;;;;;5070090;28;20415;-57
2023/05/10 01:54:39;;;;;;;15.50;10.35;;;12.90;99.90;;;;;;5079618;28;20416;-57
2023/05/10 01:57:08;;;;;;;16.30;10.50;;;12.90;99.90;;;;;;5081815;28;20430;-55
2023/05/10 01:59:40;;;;;;;18.08;10.68;;;12.80;99.90;;;;;;5077568;28;20780;-56
2023/05/10 02:02:07;;;;;;;17.17;11.02;;;12.70;99.90;;;;;;5080881;28;20414;-58
2023/05/10 02:04:38;;;;;;;20.17;11.98;;;12.70;99.90;;;;;;5082009;28;20410;-57
2023/05/10 02:07:05;;;;;;;20.55;12.10;;;12.70;99.90;;;;;;5073091;28;20495;-57
2023/05/10 02:09:34;;;;;;;23.83;12.48;;;12.50;99.90;;;;;;5079511;28;20417;-56
2023/05/10 02:12:04;;;;;;;22.55;13.02;;;12.60;99.90;;;;;;5080251;28;20415;-55
2023/05/10 02:14:35;;;;;;;23.00;12.55;;;12.70;99.90;;;;;;5077262;28;20411;-55
2023/05/10 02:17:04;;;;;;;23.25;12.50;;;12.70;99.90;;;;;;5075253;28;20488;-56
2023/05/10 02:19:32;;;;;;;26.08;12.18;;;12.50;99.90;;;;;;5079557;28;20411;-58
2023/05/10 02:22:01;;;;;;;23.83;12.87;;;12.60;99.90;;;;;;5078062;28;20485;-57
2023/05/10 02:24:29;;;;;;;24.20;12.80;;;12.70;99.90;;;;;;5085672;28;20827;-52
2023/05/10 02:26:56;;;;;;;25.10;13.20;;;12.70;99.90;;;;;;5082621;28;20411;-55
2023/05/10 02:29:25;;;;;;;27.00;12.82;;;12.70;99.90;;;;;;5089042;28;20461;-58
2023/05/10 02:31:53;;;;;;;27.15;13.43;;;12.60;99.90;;;;;;5082776;28;20468;-55
2023/05/10 02:34:21;;;;;;;28.30;13.95;;;12.50;99.90;;;;;;5086795;28;20883;-56
2023/05/10 02:36:48;;;;;;;26.27;13.98;;;12.60;99.90;;;;;;5085190;28;20424;-55
2023/05/10 02:39:17;;;;;;;27.55;14.10;;;12.60;99.90;;;;;;5087647;28;20431;-56
2023/05/10 02:41:47;;;;;;;25.48;13.80;;;12.50;99.90;;;;;;5081142;28;20475;-55
2023/05/10 02:44:15;;;;;;;25.07;13.63;;;12.60;99.90;;;;;;5086850;28;20487;-58
2023/05/10 02:46:43;;;;;;;27.33;14.00;;;12.70;99.90;;;;;;5082999;28;20429;-56
2023/05/10 02:49:10;;;;;;;23.63;13.60;;;12.70;99.90;;;;;;5088122;28;20409;-58
2023/05/10 02:51:38;;;;;;;27.73;14.57;;;12.70;99.90;;;;;;5084067;28;20419;-58
2023/05/10 02:54:12;;;;;;;26.63;14.40;;;12.70;99.90;;;;;;5085897;28;20883;-57
2023/05/10 02:56:47;;;;;;;24.98;13.27;;;12.80;99.90;;;;;;5085641;28;20411;-56
2023/05/10 02:59:13;;;;;;;27.02;14.00;;;12.70;99.90;;;;;;5084244;28;20481;-58
2023/05/10 03:01:40;;;;;;;24.70;14.18;;;12.70;99.90;;;;;;5084221;28;20413;-57
2023/05/10 03:04:07;;;;;;;22.90;12.95;;;12.80;99.90;;;;;;5086376;28;20415;-56
2023/05/10 03:06:33;;;;;;;21.63;12.93;;;12.80;99.90;;;;;;5082467;28;20473;-58
2023/05/10 03:09:00;;;;;;;23.10;13.73;;;12.90;99.90;;;;;;5088184;28;20431;-58
2023/05/10 03:11:47;;;;;;;26.15;13.90;;;12.80;99.90;;;;;;5086589;28;21357;-57
2023/05/10 03:14:35;;;;;;;26.38;13.73;;;12.80;99.90;;;;;;5085273;28;20898;-58
2023/05/10 03:17:09;;;;;;;27.88;13.23;;;12.90;99.90;;;;;;5081263;28;20411;-58
2023/05/10 03:19:46;;;;;;;24.75;13.30;;;12.90;99.90;;;;;;5084384;28;20508;-59
2023/05/10 03:22:17;;;;;;;26.05;14.05;;;12.90;99.90;;;;;;5080352;28;20414;-57
2023/05/10 03:24:45;;;;;;;21.50;12.75;;;12.90;99.90;;;;;;5088025;28;20883;-57
2023/05/10 03:27:16;;;;;;;24.38;13.00;;;13.00;99.90;;;;;;5083782;28;20459;-55
2023/05/10 03:29:44;;;;;;;25.17;13.32;;;12.90;99.90;;;;;;5085315;28;20407;-57
2023/05/10 03:32:11;;;;;;;26.07;15.00;;;12.90;99.90;;;;;;5075172;28;20415;-59
2023/05/10 03:34:42;;;;;;;29.02;15.00;;;12.90;99.90;;;;;;5083622;28;20753;-57
2023/05/10 03:37:09;;;;;;;30.77;16.05;;;12.90;99.90;;;;;;5074111;28;20427;-57
2023/05/10 03:39:37;;;;;;;31.95;16.88;;;12.90;99.90;;;;;;5083078;28;20480;-59
2023/05/10 03:42:03;;;;;;;36.67;17.83;;;12.90;99.90;;;;;;5085276;28;20820;-59
2023/05/10 03:44:33;;;;;;;37.03;19.10;;;12.90;99.90;;;;;;5083302;28;20473;-56
2023/05/10 03:46:59;;;;;;;41.90;20.33;;;12.90;99.90;;;;;;5075972;28;20488;-59
2023/05/10 03:49:26;;;;;;;37.53;20.85;;;12.90;99.90;;;;;;5084144;28;20883;-58
2023/05/10 03:51:52;;;;;;;36.20;19.70;;;12.90;99.90;;;;;;5080575;28;20419;-57
2023/05/10 03:54:20;;;;;;;40.25;22.23;;;12.90;99.90;;;;;;5084519;28;20474;-53
2023/05/10 03:56:47;;;;;;;42.88;22.38;;;12.80;99.90;;;;;;5082968;28;20419;-55
2023/05/10 03:59:14;;;;;;;41.95;22.80;;;12.80;99.90;;;;;;5083019;28;20778;-57
2023/05/10 04:01:42;;;;;;;47.00;24.88;;;12.80;99.90;;;;;;5078764;28;20488;-55
2023/05/10 04:04:08;;;;;;;49.47;25.35;;;12.70;99.90;;;;;;5083667;28;20900;-53
2023/05/10 04:06:35;;;;;;;45.50;23.80;;;12.70;99.90;;;;;;5075856;28;20481;-57
2023/05/10 04:09:04;;;;;;;46.35;23.95;;;12.70;99.90;;;;;;5082778;28;20884;-55
2023/05/10 04:11:31;;;;;;;43.45;22.85;;;12.80;99.90;;;;;;5081458;28;20427;-57
2023/05/10 04:13:57;;;;;;;42.65;22.23;;;12.80;99.90;;;;;;5083015;28;20424;-58
2023/05/10 04:16:24;;;;;;;41.97;21.30;;;12.80;99.90;;;;;;5080481;28;20826;-55
2023/05/10 04:18:52;;;;;;;41.53;21.83;;;12.80;99.90;;;;;;5081280;28;20462;-55
2023/05/10 04:21:19;;;;;;;40.83;21.17;;;12.80;99.90;;;;;;5081341;28;20441;-55
2023/05/10 04:23:45;;;;;;;38.25;21.15;;;12.80;99.90;;;;;;5080777;28;20408;-55
2023/05/10 04:26:12;;;;;;;39.28;20.75;;;12.90;99.90;;;;;;5082382;28;20421;-56
2023/05/10 04:28:38;;;;;;;40.47;21.75;;;12.80;99.90;;;;;;5083381;28;20408;-56
2023/05/10 04:31:06;;;;;;;43.28;23.10;;;12.70;99.90;;;;;;5083311;28;20767;-55
2023/05/10 04:33:33;;;;;;;45.33;23.45;;;12.80;99.90;;;;;;5078024;28;20416;-54
2023/05/10 04:36:01;;;;;;;43.15;22.80;;;12.80;99.90;;;;;;5083234;28;20492;-57
2023/05/10 04:38:28;;;;;;;42.72;22.67;;;12.80;99.90;;;;;;5079480;28;20428;-55
2023/05/10 04:40:55;;;;;;;44.67;24.25;;;12.90;99.90;;;;;;5081010;28;20888;-55
2023/05/10 04:43:22;;;;;;;46.47;23.30;;;12.80;99.90;;;;;;5082913;28;20413;-58
2023/05/10 04:45:50;;;;;;;47.95;24.42;;;12.90;99.90;;;;;;5082368;28;20944;-56
2023/05/10 04:48:16;;;;;;;48.28;25.20;;;12.90;99.90;;;;;;5076961;28;20930;-57
2023/05/10 04:50:43;;;;;;;45.65;24.70;;;12.90;99.90;;;;;;5080140;28;20452;-55
2023/05/10 04:53:11;;;;;;;47.85;24.98;;;12.90;99.90;;;;;;5078923;28;20417;-56
2023/05/10 04:55:38;;;;;;;47.45;24.30;;;12.90;99.90;;;;;;5079720;28;20491;-58
2023/05/10 04:58:04;;;;;;;54.50;27.20;;;12.90;99.90;;;;;;5085406;28;20421;-58
2023/05/10 05:00:31;;;;;;;52.97;26.43;;;12.90;99.90;;;;;;5083361;28;20463;-55
2023/05/10 05:02:58;;;;;;;60.20;29.08;;;12.90;99.90;;;;;;5080029;28;20929;-56
2023/05/10 05:05:25;;;;;;;60.08;28.35;;;12.90;99.90;;;;;;5081223;28;20412;-58
2023/05/10 05:07:51;;;;;;;62.30;29.40;;;12.90;99.90;;;;;;5080703;28;20416;-56
2023/05/10 05:10:19;;;;;;;60.45;28.90;;;12.90;99.90;;;;;;5081301;28;20430;-57
2023/05/10 05:12:46;;;;;;;58.95;28.30;;;13.00;99.90;;;;;;5077070;28;20411;-55
2023/05/10 05:15:13;;;;;;;59.63;28.37;;;13.10;99.90;;;;;;5077699;28;20420;-58
2023/05/10 05:17:39;;;;;;;56.47;26.85;;;13.10;99.90;;;;;;5076026;28;20418;-56
2023/05/10 05:20:07;;;;;;;54.03;27.30;;;13.10;99.90;;;;;;5081060;28;20416;-57
2023/05/10 05:22:34;;;;;;;62.47;30.47;;;13.10;99.90;;;;;;5078599;28;20426;-59
2023/05/10 05:25:02;;;;;;;60.22;30.10;;;13.10;99.90;;;;;;5080016;28;20476;-53
2023/05/10 05:27:30;;;;;;;59.47;29.65;;;13.20;99.90;;;;;;5079781;28;20755;-53
2023/05/10 05:29:58;;;;;;;57.35;28.83;;;13.20;99.90;;;;;;5080414;28;20407;-55
2023/05/10 05:32:25;;;;;;;54.45;29.42;;;13.30;99.90;;;;;;5079431;28;20418;-55
2023/05/10 05:34:52;;;;;;;58.97;30.23;;;13.20;99.90;;;;;;5069075;28;20745;-54
2023/05/10 05:37:21;;;;;;;57.80;29.60;;;13.30;99.90;;;;;;5078230;28;20419;-54
2023/05/10 05:39:47;;;;;;;57.97;29.17;;;13.30;99.90;;;;;;5079265;28;20926;-58
2023/05/10 05:42:16;;;;;;;62.22;30.90;;;13.30;99.90;;;;;;5081750;28;20413;-54
2023/05/10 05:44:44;;;;;;;60.80;30.73;;;13.30;99.90;;;;;;5077704;28;20501;-55
2023/05/10 05:47:10;;;;;;;58.22;29.83;;;13.30;99.90;;;;;;5073664;28;20482;-56
2023/05/10 05:49:37;;;;;;;58.30;30.38;;;13.30;99.90;;;;;;5073166;28;20419;-57
2023/05/10 05:52:05;;;;;;;63.67;31.45;;;13.30;99.90;;;;;;5079851;28;20414;-59
2023/05/10 05:54:32;;;;;;;57.60;31.60;;;13.30;99.90;;;;;;5079381;28;20961;-58
2023/05/10 05:56:59;;;;;;;63.03;32.20;;;13.30;99.90;;;;;;5079919;28;20883;-60
2023/05/10 05:59:26;;;;;;;66.43;33.40;;;13.30;99.90;;;;;;5073361;28;20832;-60
2023/05/10 06:01:54;;;;;;;64.35;33.95;;;13.30;99.90;;;;;;5079200;28;20421;-57
2023/05/10 06:04:21;;;;;;;67.30;34.93;;;13.40;99.90;;;;;;5078685;28;20415;-61
2023/05/10 06:06:48;;;;;;;59.75;33.00;;;13.40;99.90;;;;;;5076344;28;20421;-58
2023/05/10 06:09:14;;;;;;;62.40;33.17;;;13.40;99.90;;;;;;5081805;28;21064;-61
2023/05/10 06:11:41;;;;;;;59.60;33.47;;;13.50;99.90;;;;;;5079204;28;20412;-60
2023/05/10 06:14:08;;;;;;;60.60;33.13;;;13.60;99.90;;;;;;5079916;28;20465;-62
2023/05/10 06:16:34;;;;;;;62.95;33.55;;;13.60;99.90;;;;;;5075977;28;20419;-61
2023/05/10 06:19:02;;;;;;;57.23;32.90;;;13.70;99.90;;;;;;5079154;28;20909;-61
2023/05/10 06:21:29;;;;;;;61.20;33.85;;;13.60;99.90;;;;;;5078165;28;20425;-61
2023/05/10 06:23:56;;;;;;;60.70;33.72;;;13.60;99.90;;;;;;5079105;28;20419;-58
2023/05/10 06:26:23;;;;;;;58.08;32.92;;;13.70;99.90;;;;;;5079284;28;20419;-59
2023/05/10 06:28:49;;;;;;;61.08;34.60;;;13.70;99.90;;;;;;5082179;28;20412;-60
2023/05/10 06:31:16;;;;;;;55.03;33.03;;;13.70;99.90;;;;;;5079975;28;20833;-60
2023/05/10 06:33:43;;;;;;;56.97;33.70;;;13.80;99.90;;;;;;5076836;28;20423;-61
2023/05/10 06:36:11;;;;;;;59.65;32.78;;;13.90;99.90;;;;;;5080355;28;20410;-61
2023/05/10 06:38:37;;;;;;;55.67;32.75;;;13.80;99.90;;;;;;5076711;28;20430;-60
2023/05/10 06:41:04;;;;;;;62.22;35.72;;;13.70;99.90;;;;;;5080868;28;20414;-60
2023/05/10 06:43:30;;;;;;;60.00;35.30;;;13.70;99.90;;;;;;5079830;28;20415;-58
2023/05/10 06:45:57;;;;;;;62.57;35.20;;;13.70;99.90;;;;;;5077803;28;20410;-58
2023/05/10 06:48:24;;;;;;;56.17;33.78;;;13.70;99.90;;;;;;5073388;28;20821;-58
2023/05/10 06:50:50;;;;;;;59.28;35.35;;;13.80;99.90;;;;;;5073407;28;20557;-58
2023/05/10 06:53:18;;;;;;;55.35;32.70;;;13.80;99.90;;;;;;5068457;28;20820;-65
2023/05/10 06:55:45;;;;;;;58.00;34.80;;;13.80;99.90;;;;;;5078911;28;20419;-63
2023/05/10 06:58:12;;;;;;;52.20;33.22;;;14.00;99.90;;;;;;5080523;28;20416;-64
2023/05/10 07:00:40;;;;;;;50.95;33.22;;;14.00;99.90;;;;;;5081437;28;20419;-57
2023/05/10 07:03:07;;;;;;;49.93;31.33;;;14.10;99.90;;;;;;5077731;28;20422;-60
2023/05/10 07:05:33;;;;;;;52.72;33.53;;;14.20;99.90;;;;;;5080541;28;20941;-59
2023/05/10 07:08:00;;;;;;;50.00;31.25;;;14.40;99.90;;;;;;5077545;28;20419;-60
2023/05/10 07:10:28;;;;;;;49.65;31.52;;;14.40;99.90;;;;;;5081879;28;20411;-60
2023/05/10 07:12:55;;;;;;;50.78;30.42;;;14.50;99.90;;;;;;5085252;28;20488;-61
2023/05/10 07:15:22;;;;;;;48.70;29.95;;;14.50;99.90;;;;;;5079978;28;20476;-59
2023/05/10 07:17:49;;;;;;;51.33;30.35;;;14.60;99.90;;;;;;5080658;28;20445;-61
2023/05/10 07:20:16;;;;;;;48.40;28.27;;;14.70;99.90;;;;;;5083819;28;20470;-61
2023/05/10 07:22:42;;;;;;;48.22;28.48;;;14.70;99.90;;;;;;5081716;28;20840;-62
2023/05/10 07:25:09;;;;;;;49.72;29.13;;;14.60;99.90;;;;;;5081711;28;20415;-58
2023/05/10 07:27:37;;;;;;;47.60;28.70;;;14.50;99.90;;;;;;5086552;28;20510;-60
2023/05/10 07:30:04;;;;;;;49.70;29.48;;;14.60;99.90;;;;;;5078805;28;20442;-57
2023/05/10 07:32:31;;;;;;;51.97;30.25;;;14.60;99.90;;;;;;5080320;28;20479;-57
2023/05/10 07:34:58;;;;;;;52.40;30.05;;;14.70;99.90;;;;;;5079954;28;20773;-58
2023/05/10 07:37:24;;;;;;;49.38;30.33;;;14.60;99.90;;;;;;5076104;28;20448;-60
2023/05/10 07:39:51;;;;;;;48.97;29.75;;;14.60;99.90;;;;;;5080776;28;20459;-55
2023/05/10 07:42:18;;;;;;;49.72;28.98;;;14.60;99.90;;;;;;5077982;28;20465;-57
2023/05/10 07:44:47;;;;;;;50.10;29.70;;;14.60;99.90;;;;;;5079912;28;20428;-61
2023/05/10 07:47:13;;;;;;;51.97;29.50;;;14.70;99.90;;;;;;5083458;28;20435;-57
2023/05/10 07:49:40;;;;;;;48.83;29.02;;;14.80;99.90;;;;;;5083976;28;20463;-58
2023/05/10 07:52:07;;;;;;;51.55;30.15;;;14.70;99.90;;;;;;5079785;28;20452;-61
2023/05/10 07:54:34;;;;;;;54.45;30.58;;;14.70;99.90;;;;;;5082784;28;20407;-58
2023/05/10 07:57:01;;;;;;;51.85;30.30;;;14.70;99.90;;;;;;5082815;28;20410;-58
2023/05/10 07:59:27;;;;;;;54.03;32.03;;;14.80;99.90;;;;;;5084586;28;20447;-58
2023/05/10 08:01:56;;;;;;;52.35;31.13;;;14.80;99.90;;;;;;5074426;28;20419;-63
2023/05/10 08:04:22;;;;;;;51.23;32.43;;;14.90;99.90;;;;;;5083389;28;20529;-57
2023/05/10 08:06:49;;;;;;;52.75;32.30;;;15.00;99.90;;;;;;5078509;28;20420;-62
2023/05/10 08:09:17;;;;;;;48.22;29.45;;;14.90;99.90;;;;;;5083121;28;20467;-63
2023/05/10 08:11:44;;;;;;;45.83;28.00;;;15.00;99.90;;;;;;5080473;28;20487;-64
2023/05/10 08:14:10;;;;;;;50.15;28.40;;;15.00;99.90;;;;;;5081669;28;20460;-63
2023/05/10 08:16:37;;;;;;;50.38;28.63;;;14.70;99.90;;;;;;5077484;28;20416;-58
2023/05/10 08:19:05;;;;;;;45.80;27.60;;;14.80;99.90;;;;;;5080670;28;20818;-66
2023/05/10 08:21:32;;;;;;;47.33;28.10;;;14.90;99.90;;;;;;5080182;28;20974;-59
2023/05/10 08:23:59;;;;;;;47.38;27.63;;;15.00;99.90;;;;;;5078528;28;20413;-65
2023/05/10 08:26:26;;;;;;;48.00;28.05;;;14.80;99.90;;;;;;5077738;28;20516;-61
2023/05/10 08:28:52;;;;;;;52.42;29.48;;;14.80;99.90;;;;;;5083191;28;20438;-62
2023/05/10 08:31:19;;;;;;;51.22;29.17;;;14.70;99.90;;;;;;5082108;28;20414;-59
2023/05/10 08:33:46;;;;;;;47.22;26.83;;;14.70;99.90;;;;;;5078237;28;20477;-60
2023/05/10 08:36:19;;;;;;;46.70;26.05;;;14.60;99.90;;;;;;5074951;28;20415;-58
2023/05/10 08:38:46;;;;;;;48.15;26.95;;;14.70;99.90;;;;;;5077671;28;20419;-61
2023/05/10 08:41:12;;;;;;;43.63;24.58;;;14.60;99.90;;;;;;5076171;28;20426;-60
2023/05/10 08:43:41;;;;;;;40.75;23.60;;;14.70;99.90;;;;;;5081241;28;20887;-58
2023/05/10 08:46:10;;;;;;;42.33;24.60;;;14.60;99.90;;;;;;5082415;28;20456;-59
2023/05/10 08:48:38;;;;;;;42.10;23.70;;;14.60;99.90;;;;;;5077684;28;20416;-58
2023/05/10 08:51:05;;;;;;;36.88;22.23;;;14.70;99.90;;;;;;5082761;28;20455;-61
2023/05/10 08:53:36;;;;;;;31.08;18.67;;;15.00;99.90;;;;;;5077648;28;20417;-59
2023/05/10 08:56:02;;;;;;;27.27;15.82;;;15.20;99.90;;;;;;5080711;28;20435;-62
2023/05/10 08:58:29;;;;;;;22.27;13.90;;;15.40;99.90;;;;;;5080225;28;20409;-59
2023/05/10 09:00:57;;;;;;;20.25;13.63;;;15.60;99.90;;;;;;5081687;28;20429;-57
2023/05/10 09:03:24;;;;;;;21.52;13.20;;;15.70;99.90;;;;;;5071930;28;20892;-58
2023/05/10 09:05:51;;;;;;;19.92;12.02;;;15.60;99.90;;;;;;5067583;28;20450;-61
2023/05/10 09:08:19;;;;;;;19.50;12.80;;;15.50;99.90;;;;;;5072858;28;20822;-58
2023/05/10 09:10:48;;;;;;;19.67;13.13;;;15.40;99.90;;;;;;5076739;28;20469;-63
2023/05/10 09:13:16;;;;;;;21.73;13.80;;;15.40;99.90;;;;;;5079615;28;20411;-65
2023/05/10 09:15:44;;;;;;;22.20;14.30;;;15.40;99.90;;;;;;5081309;28;20910;-61
2023/05/10 09:18:10;;;;;;;22.33;14.10;;;15.50;99.90;;;;;;5079998;28;20426;-59
2023/05/10 09:20:37;;;;;;;21.43;14.30;;;15.50;99.90;;;;;;5079189;28;20429;-61
2023/05/10 09:23:04;;;;;;;19.90;14.45;;;15.70;99.90;;;;;;5079914;28;20424;-59
2023/05/10 09:25:33;;;;;;;21.63;14.20;;;15.80;99.90;;;;;;5078608;28;20415;-63
2023/05/10 09:28:01;;;;;;;21.88;13.90;;;15.70;99.90;;;;;;5078515;28;20543;-62
2023/05/10 09:30:29;;;;;;;21.63;14.18;;;15.70;99.90;;;;;;5078638;28;20503;-65
2023/05/10 09:32:57;;;;;;;20.40;13.98;;;15.60;99.90;;;;;;5076648;28;20489;-63
2023/05/10 09:35:25;;;;;;;22.15;13.48;;;15.60;99.90;;;;;;5081190;28;20470;-65
2023/05/10 09:37:54;;;;;;;20.88;13.57;;;15.70;99.90;;;;;;5073886;28;20460;-62
2023/05/10 09:40:22;;;;;;;21.35;14.40;;;15.70;99.90;;;;;;5079764;28;20475;-64
2023/05/10 09:42:53;;;;;;;20.80;13.90;;;15.70;99.90;;;;;;5081451;28;20825;-63
2023/05/10 09:45:22;;;;;;;22.03;13.80;;;15.80;99.90;;;;;;5080928;28;20497;-65
2023/05/10 09:47:48;;;;;;;23.95;14.45;;;15.70;99.90;;;;;;5076119;28;20819;-64
2023/05/10 09:50:15;;;;;;;24.90;14.68;;;15.50;99.90;;;;;;5080738;28;20457;-63
2023/05/10 09:52:50;;;;;;;26.73;14.98;;;15.40;99.90;;;;;;5077098;28;20422;-65
2023/05/10 09:55:18;;;;;;;25.45;14.70;;;15.50;99.90;;;;;;5072488;28;20511;-67
2023/05/10 09:57:45;;;;;;;25.10;15.63;;;15.60;99.90;;;;;;5084378;28;20439;-66
2023/05/10 10:00:18;;;;;;;27.02;15.73;;;15.60;99.90;;;;;;5078513;28;20433;-65
2023/05/10 10:02:48;;;;;;;24.95;14.85;;;15.70;99.90;;;;;;5074083;28;20450;-62
2023/05/10 10:05:15;;;;;;;23.70;14.30;;;15.80;99.90;;;;;;5078838;28;20443;-64
2023/05/10 10:07:42;;;;;;;26.45;15.38;;;15.90;99.90;;;;;;5078247;28;20914;-64
2023/05/10 10:10:12;;;;;;;24.08;15.98;;;16.00;99.90;;;;;;5078906;28;20414;-66
2023/05/10 10:12:39;;;;;;;29.52;18.73;;;16.10;99.90;;;;;;5077086;28;20424;-65
2023/05/10 10:15:08;;;;;;;33.22;20.23;;;16.00;99.90;;;;;;5079413;28;20428;-61
2023/05/10 10:17:37;;;;;;;33.45;20.30;;;15.80;99.90;;;;;;5078533;28;20468;-61
2023/05/10 10:20:07;;;;;;;36.83;21.80;;;15.70;99.90;;;;;;5077100;28;20457;-61
2023/05/10 10:22:33;;;;;;;37.00;22.13;;;15.80;99.90;;;;;;5076332;28;20509;-61
2023/05/10 10:25:00;;;;;;;37.08;20.90;;;15.70;99.90;;;;;;5077466;28;20422;-61
2023/05/10 10:27:38;;;;;;;32.08;19.88;;;15.80;99.90;;;;;;5081951;28;20415;-58
2023/05/10 10:30:14;;;;;;;31.73;20.00;;;15.80;99.90;;;;;;5076987;28;20478;-64
2023/05/10 10:33:05;;;;;;;28.88;18.88;;;15.90;99.90;;;;;;5074946;28;20451;-66
2023/05/10 10:35:34;;;;;;;27.10;16.50;;;16.00;99.90;;;;;;5076871;28;20468;-64
2023/05/10 10:38:01;;;;;;;24.05;15.55;;;16.10;99.90;;;;;;5077505;28;20920;-59
2023/05/10 10:40:30;;;;;;;25.75;15.50;;;16.00;99.90;;;;;;5079019;28;20419;-65
2023/05/10 10:42:57;;;;;;;22.42;15.38;;;16.00;99.90;;;;;;5078484;28;20752;-64
2023/05/10 10:45:26;;;;;;;24.27;15.30;;;16.20;99.90;;;;;;5079919;28;20779;-63
2023/05/10 10:48:09;;;;;;;24.45;15.00;;;16.10;99.90;;;;;;5082881;28;20431;-62
2023/05/10 10:50:46;;;;;;;23.50;14.60;;;16.10;99.90;;;;;;5080011;28;20457;-63
2023/05/10 10:53:13;;;;;;;22.67;15.13;;;16.20;99.90;;;;;;5081854;28;20551;-62
2023/05/10 10:55:47;;;;;;;25.52;15.95;;;16.20;99.90;;;;;;5085487;28;20411;-63
2023/05/10 10:58:31;;;;;;;22.70;15.13;;;16.20;99.90;;;;;;5080978;28;20414;-65
2023/05/10 11:01:11;;;;;;;20.75;14.98;;;16.00;99.90;;;;;;5077979;28;20489;-63
2023/05/10 11:03:38;;;;;;;21.73;16.40;;;15.90;99.90;;;;;;5074847;28;20494;-64
2023/05/10 11:06:07;;;;;;;23.65;16.90;;;15.90;99.90;;;;;;5084875;28;20755;-64
2023/05/10 11:08:35;;;;;;;23.15;17.85;;;15.80;99.90;;;;;;5083893;28;20940;-66
2023/05/10 11:11:09;;;;;;;25.17;18.75;;;15.70;99.90;;;;;;5080102;28;20424;-65
2023/05/10 11:13:40;;;;;;;26.63;18.77;;;16.00;99.90;;;;;;5080121;28;20533;-66
2023/05/10 11:16:13;;;;;;;23.30;17.38;;;16.30;99.90;;;;;;5081384;28;20477;-65
2023/05/10 11:18:39;;;;;;;25.90;17.80;;;16.40;99.90;;;;;;5079827;28;20445;-64
2023/05/10 11:21:10;;;;;;;22.30;16.45;;;16.50;99.90;;;;;;5084216;28;20478;-68
2023/05/10 11:23:50;;;;;;;23.15;16.95;;;16.60;99.90;;;;;;5083115;28;20413;-69
2023/05/10 11:26:17;;;;;;;22.70;16.63;;;16.20;99.90;;;;;;5080209;28;20414;-68
2023/05/10 11:28:44;;;;;;;20.38;14.73;;;15.90;99.90;;;;;;5084292;28;20462;-67
2023/05/10 11:31:12;;;;;;;22.20;15.48;;;15.70;99.90;;;;;;5083750;28;20416;-66
2023/05/10 11:33:44;;;;;;;20.75;15.05;;;15.50;99.90;;;;;;5078060;28;20477;-64
2023/05/10 11:36:13;;;;;;;23.27;14.57;;;15.50;99.90;;;;;;5078907;28;20904;-65
2023/05/10 11:38:40;;;;;;;17.70;12.95;;;15.70;99.90;;;;;;5083381;28;20500;-67
2023/05/10 11:41:08;;;;;;;26.00;15.38;;;15.70;99.90;;;;;;5078037;28;20427;-69
2023/05/10 11:43:36;;;;;;;19.38;12.85;;;15.70;99.90;;;;;;5082198;28;20456;-68
2023/05/10 11:46:03;;;;;;;18.88;13.45;;;15.90;99.90;;;;;;5079211;28;20548;-67
2023/05/10 11:48:30;;;;;;;18.77;13.05;;;16.00;99.90;;;;;;5082762;28;20422;-65
2023/05/10 11:50:57;;;;;;;17.98;12.82;;;15.90;99.90;;;;;;5081001;28;20881;-68
2023/05/10 11:53:26;;;;;;;20.20;13.35;;;15.80;99.90;;;;;;5083632;28;20421;-66
2023/05/10 11:55:53;;;;;;;19.35;12.48;;;15.80;99.90;;;;;;5082647;28;20458;-67
2023/05/10 11:58:21;;;;;;;19.75;12.13;;;16.00;99.90;;;;;;5080915;28;20448;-67
2023/05/10 12:00:48;;;;;;;31.98;15.45;;;16.20;99.90;;;;;;5077456;28;20423;-69
2023/05/10 12:03:15;;;;;;;15.60;11.50;;;16.20;99.90;;;;;;5083684;28;20458;-67
2023/05/10 12:05:42;;;;;;;16.38;11.38;;;16.00;99.90;;;;;;5079307;28;20451;-66
2023/05/10 12:08:12;;;;;;;19.55;13.38;;;15.90;99.90;;;;;;5084444;28;20421;-68
2023/05/10 12:10:40;;;;;;;19.13;14.38;;;15.60;99.90;;;;;;5079851;28;21007;-70
2023/05/10 12:13:12;;;;;;;19.93;14.20;;;15.40;99.90;;;;;;5083151;28;20410;-67
2023/05/10 12:15:39;;;;;;;21.27;14.73;;;15.20;99.90;;;;;;5078752;28;20487;-67
2023/05/10 12:18:06;;;;;;;17.90;13.68;;;15.20;99.90;;;;;;5080462;28;20826;-70
2023/05/10 12:20:32;;;;;;;18.27;13.87;;;15.30;99.90;;;;;;5076387;28;20936;-70
2023/05/10 12:23:01;;;;;;;16.20;12.98;;;15.40;99.90;;;;;;5082520;28;20471;-68
2023/05/10 12:25:32;;;;;;;18.17;12.98;;;15.70;99.90;;;;;;5078703;28;20479;-70
2023/05/10 12:28:03;;;;;;;18.58;13.80;;;16.00;99.90;;;;;;5085194;28;20462;-70
2023/05/10 12:30:31;;;;;;;16.63;13.20;;;16.10;99.90;;;;;;5075799;28;20466;-61
2023/05/10 12:33:01;;;;;;;18.00;13.20;;;16.40;99.90;;;;;;5079482;28;20422;-61
2023/05/10 12:35:31;;;;;;;17.48;13.48;;;16.70;99.90;;;;;;5081566;28;20419;-63